createdAt,value
2023-01-30T00:00:04.480Z,24.94
2023-01-30T00:01:04.455Z,24.95
2023-01-30T00:02:04.524Z,24.95
2023-01-30T00:03:04.424Z,24.94
2023-01-30T00:54:54.910Z,24.97
2023-01-30T00:55:55.879Z,24.97
2023-01-30T00:56:55.863Z,24.97
2023-01-30T00:57:55.849Z,24.98
2023-01-30T00:58:55.834Z,24.95
2023-01-30T00:59:55.827Z,24.97
2023-01-30T01:00:55.813Z,24.94
2023-01-30T01:01:55.864Z,24.97
2023-01-30T01:02:55.811Z,24.98
2023-01-30T01:03:55.772Z,24.98
2023-01-30T01:04:55.765Z,24.95
2023-01-30T01:05:55.758Z,24.97
2023-01-30T01:06:55.748Z,24.94
2023-01-30T01:07:55.760Z,24.94
2023-01-30T01:08:55.728Z,24.97
2023-01-30T01:09:55.736Z,24.94
2023-01-30T01:10:55.716Z,24.94
2023-01-30T01:11:55.697Z,24.97
2023-01-30T01:12:55.690Z,24.95
2023-01-30T01:13:55.674Z,24.94
2023-01-30T01:14:55.656Z,24.94
2023-01-30T01:15:55.648Z,24.94
2023-01-30T01:16:55.644Z,24.95
2023-01-30T01:17:55.623Z,24.93
2023-01-30T01:18:55.611Z,24.98
2023-01-30T01:19:55.606Z,24.94
2023-01-30T01:20:55.605Z,24.95
2023-01-30T01:21:55.591Z,24.97
2023-01-30T01:22:55.579Z,24.95
2023-01-30T01:23:55.595Z,24.94
2023-01-30T01:24:55.563Z,24.95
2023-01-30T01:25:55.546Z,24.95
2023-01-30T01:26:55.537Z,24.97
2023-01-30T01:27:55.521Z,24.95
2023-01-30T01:28:55.513Z,24.95
2023-01-30T01:29:55.500Z,24.95
2023-01-30T01:30:55.579Z,24.98
2023-01-30T01:31:55.538Z,24.95
2023-01-30T01:32:55.477Z,24.93
2023-01-30T01:33:55.470Z,24.95
2023-01-30T01:34:55.452Z,24.91
2023-01-30T01:35:55.443Z,24.93
2023-01-30T01:36:55.435Z,24.94
2023-01-30T01:37:55.433Z,24.94
2023-01-30T01:38:55.431Z,24.94
2023-01-30T01:39:55.413Z,24.94
2023-01-30T01:40:55.410Z,24.94
2023-01-30T01:41:55.402Z,24.95
2023-01-30T01:42:55.396Z,24.95
2023-01-30T01:43:55.384Z,24.95
2023-01-30T01:44:55.383Z,24.94
2023-01-30T01:46:55.368Z,24.94
2023-01-30T01:47:55.439Z,24.94
2023-01-30T01:48:55.351Z,24.95
2023-01-30T01:49:55.330Z,24.95
2023-01-30T01:50:55.326Z,24.91
2023-01-30T01:51:55.306Z,24.91
2023-01-30T01:52:55.291Z,24.93
2023-01-30T01:53:55.289Z,24.94
2023-01-30T01:54:55.290Z,24.94
2023-01-30T01:55:55.263Z,24.93
2023-01-30T01:56:55.266Z,24.93
2023-01-30T01:57:55.241Z,24.91
2023-01-30T01:58:55.239Z,24.93
2023-01-30T01:59:55.235Z,24.93
2023-01-30T02:00:55.283Z,24.91
2023-01-30T02:01:55.267Z,24.93
2023-01-30T02:02:55.198Z,24.94
2023-01-30T02:03:55.191Z,24.94
2023-01-30T02:04:55.187Z,24.93
2023-01-30T02:05:55.179Z,24.94
2023-01-30T02:06:55.171Z,24.94
2023-01-30T02:07:55.158Z,24.93
2023-01-30T02:08:55.146Z,24.93
2023-01-30T02:09:55.137Z,24.93
2023-01-30T02:10:55.124Z,24.93
2023-01-30T02:11:55.116Z,24.94
2023-01-30T02:12:55.103Z,24.91
2023-01-30T02:13:55.093Z,24.91
2023-01-30T02:14:55.082Z,24.94
2023-01-30T02:15:55.068Z,24.93
2023-01-30T02:16:55.048Z,24.93
2023-01-30T02:17:55.131Z,24.91
2023-01-30T02:18:55.040Z,24.93
2023-01-30T02:19:55.030Z,24.91
2023-01-30T02:20:55.014Z,24.91
2023-01-30T02:21:55.000Z,24.93
2023-01-30T02:22:54.998Z,24.93
2023-01-30T02:23:54.975Z,24.91
2023-01-30T02:24:54.974Z,24.91
2023-01-30T02:25:56.501Z,24.91
2023-01-30T02:26:55.090Z,24.90
2023-01-30T02:27:55.104Z,24.90
2023-01-30T02:28:55.073Z,24.90
2023-01-30T02:29:55.058Z,24.93
2023-01-30T02:30:55.179Z,24.88
2023-01-30T02:31:55.029Z,24.90
2023-01-30T02:32:55.019Z,24.91
2023-01-30T02:33:55.006Z,24.93
2023-01-30T02:34:54.994Z,24.91
2023-01-30T02:35:54.977Z,24.90
2023-01-30T02:36:54.953Z,24.90
2023-01-30T02:37:54.940Z,24.90
2023-01-30T02:38:54.925Z,24.90
2023-01-30T02:39:54.918Z,24.90
2023-01-30T02:40:54.896Z,24.90
2023-01-30T02:41:54.887Z,24.90
2023-01-30T02:42:54.869Z,24.91
2023-01-30T02:43:54.853Z,24.91
2023-01-30T02:44:54.843Z,24.91
2023-01-30T02:45:54.846Z,24.93
2023-01-30T02:46:54.810Z,24.93
2023-01-30T02:47:54.795Z,24.88
2023-01-30T02:48:54.784Z,24.91
2023-01-30T02:49:54.787Z,24.90
2023-01-30T02:50:54.756Z,24.91
2023-01-30T02:51:54.741Z,24.90
2023-01-30T02:52:54.725Z,24.91
2023-01-30T02:53:54.722Z,24.94
2023-01-30T02:54:54.714Z,24.91
2023-01-30T02:55:54.702Z,24.90
2023-01-30T02:56:54.713Z,24.90
2023-01-30T02:57:54.683Z,24.93
2023-01-30T02:58:54.689Z,24.91
2023-01-30T02:59:54.673Z,24.93
2023-01-30T03:00:54.648Z,24.91
2023-01-30T03:01:54.643Z,24.91
2023-01-30T03:02:54.627Z,24.93
2023-01-30T03:03:54.621Z,24.93
2023-01-30T03:04:54.616Z,24.93
2023-01-30T03:05:54.609Z,24.91
2023-01-30T03:06:54.599Z,24.91
2023-01-30T03:07:54.593Z,24.90
2023-01-30T03:08:54.578Z,24.93
2023-01-30T03:09:54.567Z,24.91
2023-01-30T03:10:54.559Z,24.91
2023-01-30T03:11:54.553Z,24.91
2023-01-30T03:12:54.537Z,24.94
2023-01-30T03:13:54.521Z,24.90
2023-01-30T03:14:54.522Z,24.93
2023-01-30T03:15:54.547Z,24.91
2023-01-30T03:16:54.502Z,24.91
2023-01-30T03:17:54.504Z,24.91
2023-01-30T03:18:54.490Z,24.91
2023-01-30T03:19:54.478Z,24.90
2023-01-30T03:20:54.480Z,24.90
2023-01-30T03:21:54.475Z,24.90
2023-01-30T03:22:54.472Z,24.90
2023-01-30T03:23:54.457Z,24.91
2023-01-30T03:24:54.538Z,24.91
2023-01-30T03:25:54.435Z,24.90
2023-01-30T03:26:54.468Z,24.91
2023-01-30T03:27:54.418Z,24.91
2023-01-30T03:28:54.419Z,24.91
2023-01-30T03:29:54.400Z,24.91
2023-01-30T03:30:54.457Z,24.93
2023-01-30T03:31:54.471Z,24.88
2023-01-30T03:32:54.374Z,24.91
2023-01-30T03:33:54.359Z,24.91
2023-01-30T03:34:54.339Z,24.93
2023-01-30T03:35:54.324Z,24.90
2023-01-30T03:36:54.311Z,24.93
2023-01-30T03:37:54.302Z,24.90
2023-01-30T03:38:54.288Z,24.90
2023-01-30T03:39:54.276Z,24.91
2023-01-30T03:40:54.266Z,24.91
2023-01-30T03:41:54.256Z,24.87
2023-01-30T03:42:54.233Z,24.88
2023-01-30T03:43:54.214Z,24.90
2023-01-30T03:44:54.229Z,24.91
2023-01-30T03:45:54.224Z,24.88
2023-01-30T03:46:54.180Z,24.91
2023-01-30T03:47:54.164Z,24.90
2023-01-30T03:48:54.148Z,24.90
2023-01-30T03:49:54.137Z,24.88
2023-01-30T03:50:54.131Z,24.88
2023-01-30T03:51:54.124Z,24.90
2023-01-30T03:52:54.109Z,24.91
2023-01-30T03:53:54.096Z,24.88
2023-01-30T03:54:54.082Z,24.87
2023-01-30T03:55:54.082Z,24.88
2023-01-30T03:56:54.068Z,24.87
2023-01-30T03:57:54.046Z,24.88
2023-01-30T03:58:54.033Z,24.88
2023-01-30T03:59:54.023Z,24.87
2023-01-30T04:00:55.977Z,24.90
2023-01-30T04:01:54.017Z,24.90
2023-01-30T04:02:53.998Z,24.88
2023-01-30T04:03:53.993Z,24.91
2023-01-30T04:04:53.970Z,24.90
2023-01-30T04:05:53.955Z,24.88
2023-01-30T04:06:53.948Z,24.90
2023-01-30T04:07:53.943Z,24.91
2023-01-30T04:08:53.937Z,24.90
2023-01-30T04:09:53.935Z,24.90
2023-01-30T04:10:53.908Z,24.91
2023-01-30T04:11:53.892Z,24.88
2023-01-30T04:12:53.886Z,24.88
2023-01-30T04:13:53.875Z,24.88
2023-01-30T04:14:53.865Z,24.88
2023-01-30T04:15:53.869Z,24.90
2023-01-30T04:16:53.891Z,24.88
2023-01-30T04:17:53.829Z,24.88
2023-01-30T04:18:53.821Z,24.88
2023-01-30T04:19:53.816Z,24.91
2023-01-30T04:20:53.796Z,24.90
2023-01-30T04:21:53.780Z,24.88
2023-01-30T04:22:53.763Z,24.88
2023-01-30T04:23:53.801Z,24.88
2023-01-30T04:24:53.746Z,24.88
2023-01-30T04:25:53.723Z,24.90
2023-01-30T04:26:53.694Z,24.91
2023-01-30T04:27:53.713Z,24.91
2023-01-30T04:28:53.660Z,24.88
2023-01-30T04:29:53.653Z,24.90
2023-01-30T04:30:53.719Z,24.90
2023-01-30T04:31:53.640Z,24.88
2023-01-30T04:32:53.640Z,24.90
2023-01-30T04:33:53.597Z,24.87
2023-01-30T04:34:53.599Z,24.90
2023-01-30T04:35:53.581Z,24.88
2023-01-30T04:36:53.576Z,24.90
2023-01-30T04:37:53.563Z,24.88
2023-01-30T04:38:53.541Z,24.88
2023-01-30T04:39:53.529Z,24.90
2023-01-30T04:40:53.515Z,24.90
2023-01-30T04:41:53.502Z,24.90
2023-01-30T04:42:53.498Z,24.88
2023-01-30T04:43:53.526Z,24.90
2023-01-30T04:44:53.495Z,24.88
2023-01-30T04:45:53.489Z,24.88
2023-01-30T05:06:53.155Z,24.88
2023-01-30T06:36:51.947Z,25.12
2023-01-30T06:38:51.901Z,25.14
2023-01-30T06:39:51.885Z,25.11
2023-01-30T06:40:51.897Z,25.14
2023-01-30T06:42:51.819Z,25.15
2023-01-30T06:43:51.799Z,25.15
2023-01-30T06:44:51.816Z,25.17
2023-01-30T06:45:51.784Z,25.15
2023-01-30T06:46:51.741Z,25.17
2023-01-30T06:47:51.746Z,25.15
2023-01-30T06:48:51.701Z,25.19
2023-01-30T06:49:51.818Z,25.18
2023-01-30T06:50:51.837Z,25.18
2023-01-30T06:51:51.628Z,25.15
2023-01-30T06:52:51.616Z,25.17
2023-01-30T06:53:53.274Z,25.19
2023-01-30T06:54:51.826Z,25.19
2023-01-30T06:58:21.211Z,25.21
2023-01-30T06:59:21.258Z,25.22
2023-01-30T07:00:21.220Z,25.22
2023-01-30T07:01:21.644Z,25.25
2023-01-30T07:02:21.094Z,25.25
2023-01-30T07:03:21.065Z,25.26
2023-01-30T07:04:21.103Z,25.25
2023-01-30T07:05:20.937Z,25.25
2023-01-30T07:06:21.280Z,25.25
2023-01-30T07:07:20.839Z,25.23
2023-01-30T07:08:24.462Z,25.23
2023-01-30T07:09:20.817Z,25.26
2023-01-30T07:10:20.702Z,25.23
2023-01-30T07:11:21.147Z,25.28
2023-01-30T07:12:23.745Z,25.28
2023-01-30T07:13:20.522Z,25.29
2023-01-30T07:14:20.491Z,25.31
2023-01-30T07:15:20.755Z,25.28
2023-01-30T07:16:20.410Z,25.31
2023-01-30T07:17:20.276Z,25.32
2023-01-30T07:18:20.214Z,25.32
2023-01-30T07:19:20.146Z,25.35
2023-01-30T07:20:20.081Z,25.35
2023-01-30T07:21:21.150Z,25.35
2023-01-30T07:22:19.965Z,25.38
2023-01-30T07:23:19.902Z,25.38
2023-01-30T07:24:19.859Z,25.39
2023-01-30T07:25:20.255Z,25.41
2023-01-30T07:26:19.747Z,25.42
2023-01-30T07:27:20.026Z,25.43
2023-01-30T07:28:19.581Z,25.41
2023-01-30T07:29:19.518Z,25.42
2023-01-30T07:30:19.503Z,25.46
2023-01-30T07:31:19.462Z,25.43
2023-01-30T07:32:19.343Z,25.46
2023-01-30T07:33:19.916Z,25.49
2023-01-30T07:34:19.524Z,25.49
2023-01-30T07:35:19.496Z,25.52
2023-01-30T07:36:19.406Z,25.50
2023-01-30T07:37:19.003Z,25.54
2023-01-30T07:38:18.949Z,25.58
2023-01-30T07:39:18.892Z,25.59
2023-01-30T07:40:18.825Z,25.58
2023-01-30T07:41:19.279Z,25.60
2023-01-30T07:42:18.683Z,25.66
2023-01-30T07:43:21.872Z,25.62
2023-01-30T07:44:18.566Z,25.66
2023-01-30T07:45:19.869Z,25.66
2023-01-30T07:46:19.043Z,25.69
2023-01-30T07:47:18.805Z,25.70
2023-01-30T07:48:18.306Z,25.75
2023-01-30T07:49:19.139Z,25.75
2023-01-30T07:50:18.892Z,25.76
2023-01-30T07:51:18.834Z,25.79
2023-01-30T07:52:19.300Z,25.81
2023-01-30T07:53:17.987Z,25.83
2023-01-30T07:54:18.409Z,25.83
2023-01-30T07:55:18.688Z,25.86
2023-01-30T07:56:19.838Z,25.86
2023-01-30T07:57:17.993Z,25.90
2023-01-30T07:58:18.044Z,25.90
2023-01-30T07:59:18.199Z,25.93
2023-01-30T08:00:18.623Z,25.96
2023-01-30T08:01:18.144Z,25.96
2023-01-30T08:02:18.107Z,25.97
2023-01-30T08:03:17.697Z,25.98
2023-01-30T08:04:17.709Z,26.01
2023-01-30T08:05:17.768Z,26.04
2023-01-30T08:06:20.755Z,26.04
2023-01-30T08:07:17.717Z,26.03
2023-01-30T08:08:17.293Z,26.04
2023-01-30T08:09:17.735Z,26.05
2023-01-30T08:10:18.461Z,26.08
2023-01-30T08:11:17.746Z,26.08
2023-01-30T08:12:17.374Z,26.11
2023-01-30T08:13:17.435Z,26.09
2023-01-30T08:14:17.292Z,26.13
2023-01-30T08:15:16.889Z,26.18
2023-01-30T08:16:17.396Z,26.17
2023-01-30T08:17:17.313Z,26.15
2023-01-30T08:18:16.990Z,26.18
2023-01-30T08:19:16.840Z,26.20
2023-01-30T08:20:17.424Z,26.18
2023-01-30T08:21:16.624Z,26.20
2023-01-30T08:22:16.801Z,26.22
2023-01-30T08:23:16.306Z,26.22
2023-01-30T08:24:16.181Z,26.24
2023-01-30T08:25:16.144Z,26.25
2023-01-30T08:26:16.090Z,26.24
2023-01-30T08:27:15.961Z,26.27
2023-01-30T08:28:16.393Z,26.30
2023-01-30T08:29:15.827Z,26.32
2023-01-30T08:30:15.829Z,26.34
2023-01-30T08:31:16.097Z,26.35
2023-01-30T08:32:15.973Z,26.38
2023-01-30T08:33:15.886Z,26.35
2023-01-30T08:34:16.300Z,26.38
2023-01-30T08:35:15.399Z,26.39
2023-01-30T08:36:16.326Z,26.42
2023-01-30T08:37:15.314Z,26.42
2023-01-30T08:38:22.171Z,26.42
2023-01-30T08:39:22.074Z,26.42
2023-01-30T08:40:15.201Z,26.42
2023-01-30T08:41:16.028Z,26.46
2023-01-30T08:42:15.342Z,26.48
2023-01-30T08:43:14.850Z,26.49
2023-01-30T08:44:14.790Z,26.52
2023-01-30T08:45:14.719Z,26.55
2023-01-30T08:46:14.939Z,26.56
2023-01-30T08:47:14.599Z,26.59
2023-01-30T08:48:14.513Z,26.58
2023-01-30T08:49:14.505Z,26.60
2023-01-30T08:50:14.948Z,26.60
2023-01-30T08:51:14.293Z,26.60
2023-01-30T08:52:14.234Z,26.63
2023-01-30T08:53:14.175Z,26.64
2023-01-30T08:54:14.157Z,26.64
2023-01-30T08:55:13.994Z,26.66
2023-01-30T08:56:14.363Z,26.64
2023-01-30T08:57:13.877Z,26.72
2023-01-30T08:58:13.819Z,26.68
2023-01-30T08:59:13.703Z,26.72
2023-01-30T09:00:13.626Z,26.72
2023-01-30T09:01:13.654Z,26.69
2023-01-30T09:02:13.478Z,26.63
2023-01-30T09:03:13.896Z,26.51
2023-01-30T09:04:13.399Z,26.39
2023-01-30T09:05:13.326Z,26.27
2023-01-30T09:06:13.289Z,26.17
2023-01-30T09:07:13.426Z,26.00
2023-01-30T09:08:13.201Z,25.87
2023-01-30T09:09:13.112Z,25.77
2023-01-30T09:10:13.077Z,25.65
2023-01-30T09:11:13.034Z,25.54
2023-01-30T09:12:12.995Z,25.45
2023-01-30T09:13:13.360Z,25.36
2023-01-30T09:14:13.114Z,25.28
2023-01-30T09:15:12.885Z,25.17
2023-01-30T09:16:12.875Z,25.11
2023-01-30T09:17:12.828Z,25.04
2023-01-30T09:18:12.863Z,24.97
2023-01-30T09:19:12.890Z,24.94
2023-01-30T09:20:12.973Z,24.87
2023-01-30T09:21:12.674Z,24.83
2023-01-30T09:22:12.672Z,24.77
2023-01-30T09:23:12.657Z,24.71
2023-01-30T09:24:12.859Z,24.66
2023-01-30T09:25:12.562Z,24.57
2023-01-30T09:26:12.731Z,24.57
2023-01-30T09:27:12.487Z,24.50
2023-01-30T09:28:12.457Z,24.46
2023-01-30T09:29:13.208Z,24.43
2023-01-30T09:30:12.407Z,24.46
2023-01-30T09:31:12.490Z,24.52
2023-01-30T09:32:12.575Z,24.60
2023-01-30T09:33:12.301Z,24.71
2023-01-30T09:34:12.298Z,24.78
2023-01-30T09:35:12.237Z,24.91
2023-01-30T09:36:12.183Z,25.03
2023-01-30T09:37:12.360Z,25.12
2023-01-30T09:38:12.196Z,25.22
2023-01-30T09:39:12.085Z,25.32
2023-01-30T09:40:11.970Z,25.41
2023-01-30T09:41:11.925Z,25.50
2023-01-30T09:42:12.382Z,25.62
2023-01-30T09:43:11.807Z,25.69
2023-01-30T09:44:11.989Z,25.76
2023-01-30T09:45:12.864Z,25.83
2023-01-30T09:46:11.705Z,25.90
2023-01-30T09:47:11.877Z,25.93
2023-01-30T09:48:11.646Z,25.98
2023-01-30T09:49:11.437Z,26.05
2023-01-30T09:50:11.370Z,26.09
2023-01-30T09:51:11.335Z,26.15
2023-01-30T09:52:11.370Z,26.20
2023-01-30T09:53:11.353Z,26.22
2023-01-30T09:54:11.136Z,26.27
2023-01-30T09:55:11.067Z,26.34
2023-01-30T09:56:11.366Z,26.38
2023-01-30T09:57:21.992Z,26.41
2023-01-30T09:58:10.881Z,26.45
2023-01-30T09:59:10.948Z,26.46
2023-01-30T10:00:10.779Z,26.51
2023-01-30T10:01:10.875Z,26.52
2023-01-30T10:02:10.635Z,26.58
2023-01-30T10:03:10.732Z,26.58
2023-01-30T10:04:10.570Z,26.60
2023-01-30T10:05:10.594Z,26.62
2023-01-30T10:06:10.870Z,26.68
2023-01-30T10:07:10.369Z,26.66
2023-01-30T10:08:10.258Z,26.70
2023-01-30T10:09:10.232Z,26.75
2023-01-30T10:10:10.380Z,26.75
2023-01-30T10:11:10.843Z,26.78
2023-01-30T10:12:10.054Z,26.79
2023-01-30T10:13:09.932Z,26.79
2023-01-30T10:14:09.905Z,26.83
2023-01-30T10:15:09.874Z,26.86
2023-01-30T10:16:09.950Z,26.89
2023-01-30T10:17:09.689Z,26.89
2023-01-30T10:18:09.605Z,26.90
2023-01-30T10:19:09.553Z,26.91
2023-01-30T10:20:10.463Z,26.93
2023-01-30T10:21:09.882Z,26.94
2023-01-30T10:22:09.386Z,26.96
2023-01-30T10:23:09.315Z,26.97
2023-01-30T10:24:09.260Z,26.97
2023-01-30T10:25:09.121Z,27.00
2023-01-30T10:26:09.376Z,27.01
2023-01-30T10:27:08.978Z,27.03
2023-01-30T10:28:08.951Z,27.04
2023-01-30T10:29:08.947Z,27.06
2023-01-30T10:30:08.964Z,27.03
2023-01-30T10:31:08.782Z,27.03
2023-01-30T10:32:08.650Z,27.03
2023-01-30T10:33:08.546Z,27.04
2023-01-30T10:34:08.469Z,27.06
2023-01-30T10:35:08.406Z,27.06
2023-01-30T10:36:08.492Z,27.06
2023-01-30T10:37:08.268Z,27.10
2023-01-30T10:38:08.201Z,27.08
2023-01-30T10:39:08.337Z,27.10
2023-01-30T10:40:08.092Z,27.11
2023-01-30T10:41:08.394Z,27.17
2023-01-30T10:42:11.910Z,27.14
2023-01-30T10:43:08.254Z,27.18
2023-01-30T10:44:11.622Z,27.18
2023-01-30T10:45:07.735Z,27.21
2023-01-30T10:46:07.889Z,27.24
2023-01-30T10:47:07.560Z,27.24
2023-01-30T10:48:07.491Z,27.28
2023-01-30T10:49:07.477Z,27.31
2023-01-30T10:50:07.599Z,27.34
2023-01-30T10:51:07.266Z,27.37
2023-01-30T10:52:07.195Z,27.38
2023-01-30T10:53:07.111Z,27.42
2023-01-30T10:54:07.388Z,27.44
2023-01-30T10:55:07.118Z,27.46
2023-01-30T10:56:06.883Z,27.48
2023-01-30T10:57:06.896Z,27.48
2023-01-30T10:58:06.736Z,27.52
2023-01-30T10:59:06.660Z,27.52
2023-01-30T11:00:06.583Z,27.52
2023-01-30T11:01:07.112Z,27.52
2023-01-30T11:02:06.511Z,27.58
2023-01-30T11:03:06.465Z,27.58
2023-01-30T11:04:06.472Z,27.61
2023-01-30T11:05:06.193Z,27.65
2023-01-30T11:06:06.110Z,27.61
2023-01-30T11:07:06.033Z,27.66
2023-01-30T11:08:06.575Z,27.66
2023-01-30T11:09:05.886Z,27.66
2023-01-30T11:10:05.812Z,27.66
2023-01-30T11:11:05.932Z,27.66
2023-01-30T11:12:05.639Z,27.68
2023-01-30T11:13:05.894Z,27.68
2023-01-30T11:14:05.478Z,27.66
2023-01-30T11:15:05.411Z,27.69
2023-01-30T11:16:05.444Z,27.68
2023-01-30T11:17:05.246Z,27.69
2023-01-30T11:18:33.446Z,27.71
2023-01-30T11:19:22.181Z,27.72
2023-01-30T11:20:05.395Z,27.71
2023-01-30T11:21:04.921Z,27.71
2023-01-30T11:22:04.845Z,27.69
2023-01-30T11:23:04.762Z,27.72
2023-01-30T11:24:04.691Z,27.72
2023-01-30T11:25:04.900Z,27.73
2023-01-30T11:26:11.329Z,27.72
2023-01-30T11:27:04.502Z,27.69
2023-01-30T11:28:04.358Z,27.66
2023-01-30T11:29:04.265Z,27.61
2023-01-30T11:30:04.402Z,27.59
2023-01-30T11:31:05.138Z,27.56
2023-01-30T11:32:04.210Z,27.53
2023-01-30T11:33:03.964Z,27.51
2023-01-30T11:34:03.902Z,27.44
2023-01-30T11:35:03.900Z,27.41
2023-01-30T11:36:06.948Z,27.40
2023-01-30T11:37:03.665Z,27.35
2023-01-30T11:38:03.596Z,27.35
2023-01-30T11:39:03.525Z,27.34
2023-01-30T11:40:03.907Z,27.35
2023-01-30T11:41:03.394Z,27.33
2023-01-30T11:42:03.331Z,27.34
2023-01-30T11:43:03.282Z,27.34
2023-01-30T11:44:03.403Z,27.37
2023-01-30T11:45:17.142Z,27.34
2023-01-30T11:46:03.075Z,27.40
2023-01-30T11:47:02.981Z,27.38
2023-01-30T11:48:04.991Z,27.40
2023-01-30T11:50:11.946Z,27.41
2023-01-30T11:51:03.675Z,27.44
2023-01-30T11:51:31.644Z,27.42
2023-01-30T11:52:02.911Z,27.44
2023-01-30T11:53:02.517Z,27.46
2023-01-30T11:54:02.433Z,27.48
2023-01-30T11:55:02.342Z,27.48
2023-01-30T11:56:06.545Z,27.51
2023-01-30T11:57:02.406Z,27.52
2023-01-30T11:58:02.111Z,27.53
2023-01-30T11:59:02.083Z,27.53
2023-01-30T12:00:02.808Z,27.58
2023-01-30T12:01:01.918Z,27.59
2023-01-30T12:02:01.877Z,27.61
2023-01-30T12:03:01.752Z,27.63
2023-01-30T12:04:01.658Z,27.63
2023-01-30T12:05:01.604Z,27.65
2023-01-30T12:06:01.914Z,27.65
2023-01-30T12:07:01.411Z,27.68
2023-01-30T12:08:01.307Z,27.68
2023-01-30T12:09:01.933Z,27.69
2023-01-30T12:10:02.448Z,27.69
2023-01-30T12:11:01.061Z,27.71
2023-01-30T12:12:00.993Z,27.73
2023-01-30T12:13:00.911Z,27.72
2023-01-30T12:14:00.832Z,27.73
2023-01-30T12:15:00.946Z,27.75
2023-01-30T12:16:00.704Z,27.76
2023-01-30T12:17:00.621Z,27.75
2023-01-30T12:18:00.531Z,27.78
2023-01-30T12:19:00.434Z,27.78
2023-01-30T12:20:00.469Z,27.80
2023-01-30T12:21:00.294Z,27.76
2023-01-30T12:22:00.182Z,27.76
2023-01-30T12:23:00.122Z,27.79
2023-01-30T12:24:00.038Z,27.80
2023-01-30T12:25:00.505Z,27.78
2023-01-30T12:25:59.866Z,27.80
2023-01-30T12:26:59.780Z,27.86
2023-01-30T12:28:14.531Z,27.83
2023-01-30T12:28:59.647Z,27.86
2023-01-30T12:29:59.648Z,27.88
2023-01-30T12:30:59.961Z,27.89
2023-01-30T12:31:59.383Z,27.90
2023-01-30T12:32:59.442Z,27.93
2023-01-30T12:33:59.253Z,27.93
2023-01-30T12:34:59.160Z,27.95
2023-01-30T12:35:59.847Z,27.96
2023-01-30T12:36:58.988Z,27.97
2023-01-30T12:37:58.900Z,28.01
2023-01-30T12:38:58.819Z,28.01
2023-01-30T12:39:58.786Z,28.04
2023-01-30T12:40:58.923Z,28.03
2023-01-30T12:41:58.627Z,28.04
2023-01-30T12:45:01.563Z,28.09
2023-01-30T14:55:49.041Z,26.58
2023-01-30T14:56:48.963Z,26.56
2023-01-30T14:57:48.974Z,26.55
2023-01-30T14:58:48.882Z,26.55
2023-01-30T14:59:56.615Z,26.52
2023-01-30T15:00:48.797Z,26.52
2023-01-30T15:01:48.695Z,26.49
2023-01-30T15:02:48.981Z,26.49
2023-01-30T15:22:47.398Z,26.32
2023-01-30T15:23:47.275Z,26.27
2023-01-30T15:24:47.215Z,26.27
2023-01-30T15:25:47.148Z,26.25
2023-01-30T15:27:47.150Z,26.21
2023-01-30T15:28:46.963Z,26.22
2023-01-30T15:29:47.032Z,26.20
2023-01-30T15:30:47.026Z,26.20
2023-01-30T15:31:46.824Z,26.21
2023-01-30T15:32:46.732Z,26.20
2023-01-30T15:33:46.704Z,26.15
2023-01-30T15:34:46.612Z,26.14
2023-01-30T15:35:46.541Z,26.15
2023-01-30T15:36:46.468Z,26.15
2023-01-30T15:37:46.409Z,26.13
2023-01-30T15:38:46.363Z,26.09
2023-01-30T15:39:46.287Z,26.11
2023-01-30T15:40:46.490Z,26.09
2023-01-30T15:41:46.179Z,26.08
2023-01-30T15:42:46.126Z,26.11
2023-01-30T15:43:46.035Z,26.11
2023-01-30T15:44:45.997Z,26.11
2023-01-30T15:45:46.046Z,26.13
2023-01-30T15:46:45.853Z,26.09
2023-01-30T15:47:45.781Z,26.11
2023-01-30T15:48:45.727Z,26.11
2023-01-30T15:49:45.998Z,26.11
2023-01-30T15:50:45.597Z,26.11
2023-01-30T15:51:45.565Z,26.11
2023-01-30T15:52:45.483Z,26.13
2023-01-30T15:53:45.415Z,26.13
2023-01-30T15:54:47.192Z,26.11
2023-01-30T15:55:45.345Z,26.09
2023-01-30T15:56:45.239Z,26.11
2023-01-30T15:57:45.176Z,26.09
2023-01-30T15:58:45.147Z,26.11
2023-01-30T15:59:45.497Z,26.09
2023-01-30T16:00:45.059Z,26.11
2023-01-30T16:01:44.932Z,26.11
2023-01-30T16:02:44.990Z,26.09
2023-01-30T16:03:44.818Z,26.08
2023-01-30T16:04:44.770Z,26.09
2023-01-30T16:05:44.690Z,26.09
2023-01-30T16:06:44.629Z,26.09
2023-01-30T16:07:45.005Z,26.08
2023-01-30T16:08:44.999Z,26.08
2023-01-30T16:09:52.223Z,26.08
2023-01-30T16:10:44.376Z,26.09
2023-01-30T16:11:44.323Z,26.07
2023-01-30T16:12:44.290Z,26.07
2023-01-30T16:13:44.196Z,26.04
2023-01-30T16:14:44.160Z,26.08
2023-01-30T16:15:44.079Z,26.05
2023-01-30T16:16:44.074Z,26.04
2023-01-30T16:17:44.036Z,26.01
2023-01-30T16:18:43.889Z,26.04
2023-01-30T16:19:43.830Z,26.04
2023-01-30T16:20:51.651Z,26.04
2023-01-30T16:21:43.718Z,26.00
2023-01-30T16:22:43.661Z,26.01
2023-01-30T16:23:44.004Z,25.98
2023-01-30T16:24:43.545Z,25.97
2023-01-30T16:25:43.481Z,25.98
2023-01-30T16:26:43.500Z,25.97
2023-01-30T16:27:43.371Z,25.97
2023-01-30T16:28:43.344Z,25.96
2023-01-30T16:29:43.256Z,25.94
2023-01-30T16:30:43.380Z,25.96
2023-01-30T16:31:43.318Z,25.96
2023-01-30T16:32:43.073Z,25.94
2023-01-30T16:33:43.042Z,25.97
2023-01-30T16:34:42.955Z,25.94
2023-01-30T16:35:42.888Z,25.94
2023-01-30T16:36:42.826Z,25.94
2023-01-30T16:37:42.772Z,25.93
2023-01-30T16:38:42.712Z,25.94
2023-01-30T16:39:42.645Z,25.91
2023-01-30T16:40:42.624Z,25.94
2023-01-30T16:41:42.514Z,25.94
2023-01-30T16:42:42.454Z,25.93
2023-01-30T16:43:42.398Z,25.93
2023-01-30T16:44:42.338Z,25.91
2023-01-30T16:45:42.332Z,25.91
2023-01-30T16:46:42.255Z,25.90
2023-01-30T16:47:42.154Z,25.90
2023-01-30T16:48:42.099Z,25.91
2023-01-30T16:49:42.037Z,25.90
2023-01-30T16:50:41.975Z,25.90
2023-01-30T16:51:41.915Z,25.90
2023-01-30T16:52:41.863Z,25.88
2023-01-30T16:53:43.415Z,25.90
2023-01-30T16:54:41.871Z,25.88
2023-01-30T16:55:41.820Z,25.88
2023-01-30T16:56:41.750Z,25.88
2023-01-30T16:57:41.692Z,25.91
2023-01-30T16:58:41.630Z,25.88
2023-01-30T16:59:41.574Z,25.88
2023-01-30T17:00:41.511Z,25.87
2023-01-30T17:01:41.754Z,25.86
2023-01-30T17:02:41.409Z,25.87
2023-01-30T17:03:41.342Z,25.87
2023-01-30T17:04:41.371Z,25.86
2023-01-30T17:05:41.214Z,25.87
2023-01-30T17:06:41.142Z,25.84
2023-01-30T17:07:41.068Z,25.84
2023-01-30T17:08:41.012Z,25.86
2023-01-30T17:09:40.945Z,25.84
2023-01-30T17:10:41.525Z,25.83
2023-01-30T17:11:40.821Z,25.84
2023-01-30T17:12:40.758Z,25.83
2023-01-30T17:13:40.699Z,25.81
2023-01-30T17:14:40.636Z,25.83
2023-01-30T17:15:40.649Z,25.81
2023-01-30T17:16:40.529Z,25.83
2023-01-30T17:17:40.464Z,25.81
2023-01-30T17:18:40.421Z,25.83
2023-01-30T17:19:40.331Z,25.80
2023-01-30T17:20:40.265Z,25.83
2023-01-30T17:21:40.201Z,25.80
2023-01-30T17:22:40.167Z,25.80
2023-01-30T17:23:40.077Z,25.81
2023-01-30T17:24:40.016Z,25.80
2023-01-30T17:25:39.957Z,25.79
2023-01-30T17:26:40.916Z,25.80
2023-01-30T17:27:39.840Z,25.79
2023-01-30T17:28:39.771Z,25.80
2023-01-30T17:29:42.965Z,25.79
2023-01-30T17:30:40.930Z,25.79
2023-01-30T17:31:39.761Z,25.80
2023-01-30T17:32:39.526Z,25.79
2023-01-30T17:33:39.479Z,25.79
2023-01-30T17:34:39.429Z,25.77
2023-01-30T17:35:39.344Z,25.77
2023-01-30T17:36:39.287Z,25.77
2023-01-30T17:37:39.220Z,25.76
2023-01-30T17:38:39.156Z,25.77
2023-01-30T17:39:39.095Z,25.77
2023-01-30T17:40:39.061Z,25.76
2023-01-30T17:41:38.984Z,25.76
2023-01-30T17:42:38.907Z,25.79
2023-01-30T17:43:38.847Z,25.79
2023-01-30T17:44:38.794Z,25.76
2023-01-30T17:45:38.734Z,25.77
2023-01-30T17:46:38.785Z,25.77
2023-01-30T17:47:38.612Z,25.75
2023-01-30T17:48:38.557Z,25.76
2023-01-30T17:49:38.502Z,25.76
2023-01-30T17:50:38.588Z,25.72
2023-01-30T17:51:38.439Z,25.75
2023-01-30T17:52:38.322Z,25.75
2023-01-30T17:53:38.291Z,25.73
2023-01-30T17:54:38.202Z,25.73
2023-01-30T17:55:38.162Z,25.73
2023-01-30T17:56:38.413Z,25.75
2023-01-30T17:57:38.032Z,25.72
2023-01-30T17:58:37.960Z,25.72
2023-01-30T17:59:37.908Z,25.73
2023-01-30T18:00:38.006Z,25.73
2023-01-30T18:01:37.911Z,25.72
2023-01-30T18:02:37.814Z,25.72
2023-01-30T18:03:37.683Z,25.70
2023-01-30T18:04:37.620Z,25.70
2023-01-30T18:05:37.560Z,25.70
2023-01-30T18:06:37.534Z,25.72
2023-01-30T18:07:37.449Z,25.69
2023-01-30T18:08:37.384Z,25.69